KCCA

Clinton Municipal Airport

Clinton, Arkansas, USA
METAR KCCA 171635Z AUTO 26004KT 1SM VCTS RA SCT004 BKN016 OVC030 22/21 A3011 RMK AO2 LTG DSNT ALQDS
Observed Flight Rules
Aug-17 @ 16:35 UTC (16 minutes ago) Instrument Flight Rules
Wind Visibility Clouds Conditions
260° at 4 knots 1 miles
  • Scattered at 400' AGL
  • Broken at 1,600' AGL
  • Overcast at 3,000' AGL
  • Area Thunderstorm
  • Rain
Temperatures Readings
Current 22°C / 72°F
Dewpoint 21°C / 70°F
Humidity 94%
Altimeter 30.11" Hg
Pressure 1020 hPa
Elevation 157
METAR KCCA 171635Z AUTO 26004KT 1SM VCTS RA SCT004 BKN016 OVC030 22/21 A3011 RMK AO2 LTG DSNT ALQDS
Observed Flight Rules
Aug-17 @ 16:35 UTC
(16 minutes ago)
IFR
Wind Visibility
260° at 4 knots 1 miles
Clouds
  • Scattered at 400' AGL
  • Broken at 1,600' AGL
  • Overcast at 3,000' AGL
Conditions
  • Area Thunderstorm
  • Rain
Temperature Dewpoint
22°C / 72°F 21°C / 70°F
Humidity Altimeter Pressure
94% 30.11" Hg 1020 hPa